Time;durP1;ratioP1;P1;durP2;ratioP2;P2;SDS_P1;SDS_P2;PMS_P1;PMS_P2;Temp;Humidity;BMP_temperature;BMP_pressure;BME280_temperature;BME280_humidity;BME280_pressure;Samples;Min_cycle;Max_cycle;Signal;HPM_P1;HPM_P2
2022/08/22 00:01:57;;;;;;;5.90;3.60;;;16.40;99.90;;;;;;5074774;28;20895;-84
2022/08/22 00:04:45;;;;;;;10.60;4.10;;;16.40;99.90;;;;;;5072790;28;20430;-81
2022/08/22 00:07:39;;;;;;;4.27;3.33;;;16.40;99.90;;;;;;5078773;28;20415;-80
2022/08/22 00:10:23;;;;;;;5.37;3.30;;;16.40;99.90;;;;;;5070029;28;20450;-85
2022/08/22 00:13:03;;;;;;;5.53;3.37;;;16.30;99.90;;;;;;5074989;28;20477;-83
2022/08/22 00:15:36;;;;;;;5.33;3.43;;;16.40;99.90;;;;;;5073553;28;20818;-84
2022/08/22 00:18:36;;;;;;;5.93;3.20;;;16.40;99.90;;;;;;5071472;28;20477;-82
2022/08/22 00:21:30;;;;;;;4.77;2.90;;;16.30;99.90;;;;;;5076172;28;20417;-84
2022/08/22 00:24:40;;;;;;;9.17;3.60;;;17.20;99.90;;;;;;5077777;28;20466;-83
2022/08/22 00:27:14;;;;;;;4.00;2.90;;;16.30;99.90;;;;;;5078080;28;20888;-83
2022/08/22 00:30:01;;;;;;;6.07;3.30;;;16.30;99.90;;;;;;5089871;28;20474;-83
2022/08/22 00:32:41;;;;;;;7.00;3.87;;;16.20;99.90;;;;;;5089565;28;20464;-81
2022/08/22 00:35:20;;;;;;;5.77;3.20;;;16.10;99.90;;;;;;5082345;28;20440;-80
2022/08/22 00:38:03;;;;;;;10.47;3.87;;;16.00;99.90;;;;;;5105280;28;20437;-80
2022/08/22 00:40:54;;;;;;;6.30;3.70;;;16.00;99.90;;;;;;5085649;28;20414;-85
2022/08/22 00:43:43;;;;;;;6.27;3.50;;;16.00;99.90;;;;;;5087162;28;20442;-84
2022/08/22 00:46:36;;;;;;;3.30;3.00;;;16.00;99.90;;;;;;5075731;28;20918;-83
2022/08/22 00:49:02;;;;;;;8.40;3.40;;;15.90;99.90;;;;;;5076587;28;20499;-84
2022/08/22 00:52:01;;;;;;;4.97;4.00;;;15.90;99.90;;;;;;5083051;28;20545;-82
2022/08/22 00:54:35;;;;;;;5.60;3.60;;;15.90;99.90;;;;;;5082555;28;20921;-84
2022/08/22 00:57:31;;;;;;;6.37;3.93;;;15.90;99.90;;;;;;5081654;28;20446;-84
2022/08/22 01:00:08;;;;;;;5.47;3.40;;;15.90;99.90;;;;;;5090316;28;20445;-84
2022/08/22 01:03:14;;;;;;;6.40;3.73;;;15.90;99.90;;;;;;5076091;28;20437;-85
2022/08/22 01:06:05;;;;;;;6.87;3.20;;;15.80;99.90;;;;;;5070005;28;20465;-83
2022/08/22 01:08:41;;;;;;;7.13;3.40;;;15.80;99.90;;;;;;5081238;28;20468;-85
2022/08/22 01:11:44;;;;;;;9.17;3.33;;;15.80;99.90;;;;;;5081679;28;20457;-82
2022/08/22 01:14:36;;;;;;;12.43;3.50;;;15.80;99.90;;;;;;5063428;28;20453;-83
2022/08/22 01:17:40;;;;;;;5.57;3.93;;;15.70;99.90;;;;;;5075707;28;20430;-84
2022/08/22 01:20:30;;;;;;;6.53;3.10;;;15.80;99.90;;;;;;5088977;28;20411;-80
2022/08/22 01:23:34;;;;;;;6.90;3.90;;;15.80;99.90;;;;;;5080909;28;20415;-81
2022/08/22 01:26:15;;;;;;;6.00;3.67;;;15.70;99.90;;;;;;5079696;28;20433;-84
2022/08/22 01:29:34;;;;;;;5.67;3.73;;;15.60;99.90;;;;;;5089596;28;20450;-83
2022/08/22 01:32:24;;;;;;;6.23;4.03;;;15.60;99.90;;;;;;5081700;28;20457;-85
2022/08/22 01:34:52;;;;;;;7.60;3.80;;;15.70;99.90;;;;;;5085509;28;20453;-84
2022/08/22 01:38:05;;;;;;;6.47;3.37;;;15.40;99.90;;;;;;5078258;28;20450;-84
2022/08/22 01:41:07;;;;;;;5.70;3.30;;;15.10;99.90;;;;;;5079629;28;20405;-82
2022/08/22 01:44:08;;;;;;;5.75;3.90;;;15.00;99.90;;;;;;5075942;28;20301;-85
2022/08/22 01:46:54;;;;;;;9.57;3.70;;;14.80;99.90;;;;;;5051838;28;20206;-82
2022/08/22 01:49:34;;;;;;;9.60;4.20;;;14.80;99.90;;;;;;5071555;28;20200;-80
2022/08/22 01:52:14;;;;;;;7.47;4.50;;;14.80;99.90;;;;;;5073816;28;21126;-83
2022/08/22 01:54:54;;;;;;;8.30;4.00;;;14.70;99.90;;;;;;5079653;28;20176;-84
2022/08/22 01:57:22;;;;;;;6.70;4.30;;;14.80;99.90;;;;;;5079194;28;20232;-83
2022/08/22 01:59:51;;;;;;;7.95;4.10;;;14.70;99.90;;;;;;5080876;28;20441;-84
2022/08/22 02:02:39;;;;;;;8.75;4.10;;;14.60;99.90;;;;;;5076804;28;20210;-85
2022/08/22 02:05:23;;;;;;;13.93;4.65;;;14.60;99.90;;;;;;5080620;28;20176;-82
2022/08/22 02:08:04;;;;;;;5.47;3.45;;;14.60;99.90;;;;;;5099492;28;20208;-82
2022/08/22 02:10:58;;;;;;;6.50;3.20;;;14.50;99.90;;;;;;5090681;28;20192;-85
2022/08/22 02:13:58;;;;;;;8.63;4.10;;;14.50;99.90;;;;;;5083558;28;20199;-86
2022/08/22 02:16:29;;;;;;;7.82;4.20;;;14.50;99.90;;;;;;5080416;28;20183;-84
2022/08/22 02:19:19;;;;;;;10.27;4.50;;;14.50;99.90;;;;;;5080261;28;20196;-84
2022/08/22 02:22:03;;;;;;;4.32;3.03;;;14.50;99.90;;;;;;5080229;28;20279;-83
2022/08/22 02:24:31;;;;;;;8.23;3.80;;;14.50;99.90;;;;;;5074089;28;20176;-84
2022/08/22 02:27:22;;;;;;;5.63;3.65;;;14.50;99.90;;;;;;5080375;28;20679;-84
2022/08/22 02:29:58;;;;;;;5.37;3.30;;;14.50;99.90;;;;;;5079140;28;20281;-84
2022/08/22 02:33:02;;;;;;;11.07;3.67;;;14.60;99.90;;;;;;5080317;28;20467;-85
2022/08/22 02:35:38;;;;;;;5.10;3.83;;;14.60;99.90;;;;;;5073322;28;20465;-81
2022/08/22 02:38:32;;;;;;;7.22;4.60;;;14.60;99.90;;;;;;5075389;28;20192;-85
2022/08/22 02:41:13;;;;;;;3.90;2.93;;;14.60;99.90;;;;;;5094181;28;20153;-81
2022/08/22 02:43:52;;;;;;;6.80;4.20;;;14.60;99.90;;;;;;5103565;28;20423;-81
2022/08/22 02:46:39;;;;;;;5.82;4.05;;;14.40;99.90;;;;;;5101361;28;20500;-80
2022/08/22 02:49:15;;;;;;;4.22;3.83;;;14.30;99.90;;;;;;5077234;28;20196;-84
2022/08/22 02:52:01;;;;;;;6.47;3.70;;;14.10;99.90;;;;;;5078635;28;20272;-84
2022/08/22 02:54:44;;;;;;;8.52;3.67;;;14.00;99.90;;;;;;5073221;28;20180;-85
2022/08/22 02:57:19;;;;;;;6.82;3.92;;;14.20;99.90;;;;;;5088470;28;20169;-82
2022/08/22 03:00:15;;;;;;;8.90;4.90;;;14.10;99.90;;;;;;5079210;28;20176;-84
2022/08/22 03:02:58;;;;;;;5.10;3.67;;;14.00;99.90;;;;;;5075568;28;20328;-83
2022/08/22 03:05:35;;;;;;;13.02;4.38;;;14.00;99.90;;;;;;5078432;28;20195;-83
2022/08/22 03:08:43;;;;;;;6.38;4.43;;;14.00;99.90;;;;;;5086452;28;20200;-83
2022/08/22 03:11:22;;;;;;;8.48;4.30;;;14.00;99.90;;;;;;5048236;28;20378;-85
2022/08/22 03:14:26;;;;;;;6.40;4.65;;;13.80;99.90;;;;;;5075366;28;20180;-84
2022/08/22 03:16:59;;;;;;;11.25;3.45;;;13.60;99.90;;;;;;5078351;28;20300;-83
2022/08/22 03:20:03;;;;;;;5.93;3.28;;;13.60;99.90;;;;;;5078225;28;20199;-84
2022/08/22 03:22:34;;;;;;;4.75;3.85;;;13.70;99.90;;;;;;5086582;28;20191;-81
2022/08/22 03:25:20;;;;;;;8.27;4.80;;;13.70;99.90;;;;;;5074944;28;20180;-84
2022/08/22 03:27:58;;;;;;;5.72;3.80;;;13.60;99.90;;;;;;5066974;28;20205;-84
2022/08/22 03:30:44;;;;;;;4.68;3.90;;;13.60;99.90;;;;;;5076357;28;20640;-83
2022/08/22 03:33:24;;;;;;;11.32;4.30;;;13.60;99.90;;;;;;5073379;28;20568;-83
2022/08/22 03:36:00;;;;;;;6.63;4.20;;;13.70;99.90;;;;;;5095635;28;20210;-80
2022/08/22 03:39:08;;;;;;;7.20;4.95;;;13.70;99.90;;;;;;5083041;28;20203;-84
2022/08/22 03:42:07;;;;;;;6.63;4.30;;;13.60;99.90;;;;;;5083520;28;20537;-80
2022/08/22 03:44:57;;;;;;;8.77;3.75;;;13.60;99.90;;;;;;5075719;28;20190;-85
2022/08/22 03:47:45;;;;;;;8.95;4.22;;;13.60;99.90;;;;;;5084984;28;20169;-84
2022/08/22 03:50:56;;;;;;;5.72;4.38;;;13.50;99.90;;;;;;5078106;28;20172;-84
2022/08/22 03:53:47;;;;;;;6.72;4.60;;;13.50;99.90;;;;;;5074235;28;20206;-82
2022/08/22 03:56:49;;;;;;;6.68;4.00;;;13.50;99.90;;;;;;5072098;28;20782;-83
2022/08/22 03:59:41;;;;;;;7.15;4.18;;;13.50;99.90;;;;;;5070397;28;20200;-84
2022/08/22 04:02:46;;;;;;;7.65;4.82;;;13.50;99.90;;;;;;5076602;28;20188;-83
2022/08/22 04:05:36;;;;;;;6.40;4.20;;;13.50;99.90;;;;;;5077821;28;20175;-82
2022/08/22 04:08:22;;;;;;;9.05;5.88;;;13.50;99.90;;;;;;5073083;28;20204;-80
2022/08/22 04:11:10;;;;;;;10.23;5.30;;;13.50;99.90;;;;;;5072588;28;20215;-82
2022/08/22 04:14:05;;;;;;;7.53;5.50;;;13.40;99.90;;;;;;5050632;28;20463;-83
2022/08/22 04:16:55;;;;;;;9.80;5.47;;;13.50;99.90;;;;;;5040683;28;20503;-83
2022/08/22 04:19:37;;;;;;;6.40;4.63;;;13.60;99.90;;;;;;5034259;28;20178;-83
2022/08/22 04:22:09;;;;;;;10.98;5.90;;;13.60;99.90;;;;;;5034922;28;20236;-84
2022/08/22 04:24:55;;;;;;;8.35;4.75;;;13.60;99.90;;;;;;5035151;28;20154;-84
2022/08/22 04:27:36;;;;;;;7.25;4.40;;;13.60;99.90;;;;;;5035034;28;20189;-83
2022/08/22 04:30:21;;;;;;;7.72;5.53;;;13.60;99.90;;;;;;5035233;28;20165;-84
2022/08/22 04:32:59;;;;;;;8.98;5.30;;;13.60;99.90;;;;;;5045897;28;20189;-83
2022/08/22 04:35:31;;;;;;;7.95;5.70;;;13.60;99.90;;;;;;5045155;28;20177;-83
2022/08/22 04:38:20;;;;;;;10.65;6.63;;;13.60;99.90;;;;;;5043719;28;20613;-84
2022/08/22 04:40:53;;;;;;;14.48;8.35;;;13.60;99.90;;;;;;5044897;28;20184;-83
2022/08/22 04:43:43;;;;;;;8.43;4.80;;;13.60;99.90;;;;;;5039888;28;20180;-84
2022/08/22 04:46:48;;;;;;;11.57;4.88;;;13.70;99.90;;;;;;5038172;28;20213;-83
2022/08/22 04:49:23;;;;;;;8.73;4.22;;;14.30;99.90;;;;;;5022773;28;20193;-83
2022/08/22 04:52:17;;;;;;;8.75;4.25;;;15.10;99.90;;;;;;5021079;28;20270;-83
2022/08/22 04:55:13;;;;;;;6.83;4.13;;;16.10;99.90;;;;;;5035108;28;20596;-83
2022/08/22 04:57:49;;;;;;;7.03;5.37;;;17.40;99.90;;;;;;5041461;28;20812;-82
2022/08/22 05:00:16;;;;;;;6.00;3.57;;;18.60;99.90;;;;;;5041507;28;20404;-83
2022/08/22 05:02:51;;;;;;;5.40;3.50;;;19.60;99.90;;;;;;5042614;28;20450;-83
2022/08/22 05:05:23;;;;;;;6.67;4.33;;;20.30;99.90;;;;;;5042899;28;20879;-83
2022/08/22 05:07:56;;;;;;;5.03;3.60;;;21.10;99.90;;;;;;5037789;28;20436;-83
2022/08/22 05:10:26;;;;;;;8.13;3.57;;;22.20;99.90;;;;;;5037949;28;20492;-83
2022/08/22 05:12:57;;;;;;;5.83;3.90;;;23.30;99.90;;;;;;5042114;28;20475;-82
2022/08/22 05:15:32;;;;;;;7.53;4.70;;;23.50;99.90;;;;;;5044173;28;20425;-82
2022/08/22 05:18:05;;;;;;;4.10;3.50;;;23.80;99.20;;;;;;5042115;28;20544;-84
2022/08/22 05:20:33;;;;;;;7.13;3.87;;;24.50;97.30;;;;;;5043731;28;20813;-83
2022/08/22 05:23:07;;;;;;;6.37;3.70;;;25.30;95.80;;;;;;5043371;28;20975;-84
2022/08/22 05:25:36;;;;;;;7.40;4.63;;;26.40;93.30;;;;;;5024121;28;20397;-81
2022/08/22 05:28:13;;;;;;;5.73;4.00;;;27.70;91.00;;;;;;5027004;28;20446;-81
2022/08/22 05:30:39;;;;;;;5.63;3.93;;;29.10;84.90;;;;;;5030526;28;20472;-81
2022/08/22 05:33:10;;;;;;;8.70;4.67;;;30.20;76.80;;;;;;5040512;28;20466;-81
2022/08/22 05:35:43;;;;;;;7.63;5.60;;;31.00;70.00;;;;;;5042250;28;20408;-81
2022/08/22 05:38:14;;;;;;;7.23;5.40;;;31.00;63.80;;;;;;5043186;28;20489;-82
2022/08/22 05:40:41;;;;;;;6.40;5.33;;;31.40;61.60;;;;;;5044204;28;20398;-82
2022/08/22 05:43:11;;;;;;;6.67;5.50;;;31.50;59.40;;;;;;5040528;28;20413;-83
2022/08/22 05:45:39;;;;;;;9.40;5.10;;;31.90;58.00;;;;;;5040020;28;20455;-83
2022/08/22 05:48:10;;;;;;;7.87;5.33;;;32.00;57.90;;;;;;5026431;28;21082;-83
2022/08/22 05:50:44;;;;;;;7.07;6.00;;;33.20;57.00;;;;;;5026885;28;20425;-84
2022/08/22 05:53:23;;;;;;;5.67;5.10;;;34.50;55.10;;;;;;5028825;28;20460;-84
2022/08/22 05:56:07;;;;;;;7.77;6.20;;;35.40;49.20;;;;;;5024255;28;20662;-83
2022/08/22 05:58:41;;;;;;;8.23;6.40;;;35.40;49.80;;;;;;5034213;28;20923;-84
2022/08/22 06:01:22;;;;;;;7.27;6.57;;;34.90;48.60;;;;;;5033065;28;20828;-83
2022/08/22 06:03:56;;;;;;;8.20;6.87;;;34.90;49.20;;;;;;5044226;28;20403;-83
2022/08/22 06:06:23;;;;;;;11.33;7.20;;;35.10;47.80;;;;;;5038696;28;20445;-84
2022/08/22 06:09:04;;;;;;;7.40;6.70;;;35.20;47.40;;;;;;5031291;28;20440;-85
2022/08/22 06:11:42;;;;;;;10.57;7.20;;;34.70;47.80;;;;;;5025567;28;20914;-84
2022/08/22 06:14:32;;;;;;;11.60;7.60;;;34.80;48.10;;;;;;5026198;28;20804;-84
2022/08/22 06:17:05;;;;;;;7.93;7.23;;;34.60;47.80;;;;;;5025240;28;20426;-83
2022/08/22 06:19:38;;;;;;;10.60;7.07;;;35.50;47.70;;;;;;5027020;28;20427;-85
2022/08/22 06:22:04;;;;;;;15.40;7.93;;;36.70;46.50;;;;;;5031904;28;20421;-86
2022/08/22 06:24:34;;;;;;;8.63;7.80;;;36.60;45.00;;;;;;5032015;28;20494;-84
2022/08/22 06:27:04;;;;;;;9.57;8.67;;;37.20;44.40;;;;;;5033180;28;20447;-84
2022/08/22 06:29:38;;;;;;;9.23;8.33;;;37.60;43.70;;;;;;5033178;28;20772;-85
2022/08/22 06:32:19;;;;;;;13.60;9.27;;;37.10;43.70;;;;;;5024298;28;20464;-84
2022/08/22 06:34:46;;;;;;;9.47;8.57;;;36.50;43.60;;;;;;5024879;28;20449;-83
2022/08/22 06:37:22;;;;;;;11.40;9.03;;;36.70;44.30;;;;;;5031941;28;20457;-84
2022/08/22 06:39:51;;;;;;;15.40;10.60;;;37.70;43.50;;;;;;5031937;28;20438;-84
2022/08/22 06:42:22;;;;;;;11.87;9.53;;;37.30;43.60;;;;;;5023780;28;20789;-84
2022/08/22 06:44:58;;;;;;;11.53;10.50;;;37.90;42.50;;;;;;5027516;28;20417;-85
2022/08/22 06:47:29;;;;;;;11.70;10.50;;;37.00;42.70;;;;;;5032412;28;20436;-84
2022/08/22 06:50:01;;;;;;;10.33;9.33;;;36.80;43.20;;;;;;5029041;28;20434;-82
2022/08/22 06:52:30;;;;;;;14.40;9.63;;;37.40;43.00;;;;;;5015871;28;20467;-85
2022/08/22 06:55:05;;;;;;;9.90;8.90;;;36.60;42.80;;;;;;5017768;28;20989;-84
2022/08/22 06:57:36;;;;;;;12.57;9.70;;;35.60;43.80;;;;;;5020225;28;20470;-85
2022/08/22 07:00:09;;;;;;;10.83;8.83;;;35.70;44.20;;;;;;5034922;28;20460;-83
2022/08/22 07:02:51;;;;;;;14.20;9.70;;;35.20;44.50;;;;;;5025023;28;20428;-82
2022/08/22 07:05:22;;;;;;;9.60;8.70;;;35.10;45.60;;;;;;5030381;28;20922;-83
2022/08/22 07:07:49;;;;;;;10.43;8.70;;;36.20;44.40;;;;;;5038783;28;20958;-82
2022/08/22 07:10:15;;;;;;;10.70;9.70;;;36.40;43.90;;;;;;5040539;28;20412;-82
2022/08/22 07:12:47;;;;;;;9.70;8.80;;;37.10;43.00;;;;;;5039894;28;20470;-82
2022/08/22 07:15:35;;;;;;;9.67;8.67;;;37.20;43.40;;;;;;5040529;28;20445;-82
2022/08/22 07:18:07;;;;;;;10.87;9.87;;;38.60;41.90;;;;;;5035129;28;20524;-82
2022/08/22 07:20:37;;;;;;;10.63;9.60;;;37.90;40.90;;;;;;5028110;28;20439;-82
2022/08/22 07:23:11;;;;;;;10.90;9.90;;;37.10;41.40;;;;;;5028240;28;20419;-82
2022/08/22 07:26:15;;;;;;;10.57;9.57;;;37.00;43.00;;;;;;5031322;28;20408;-82
2022/08/22 07:28:52;;;;;;;10.40;9.60;;;38.70;41.90;;;;;;5027255;28;20399;-83
2022/08/22 07:31:36;;;;;;;10.70;9.60;;;37.80;39.70;;;;;;5023994;28;20474;-82
2022/08/22 07:34:46;;;;;;;11.20;10.13;;;37.50;42.60;;;;;;5020058;28;20898;-82
2022/08/22 07:37:11;;;;;;;10.20;9.30;;;36.00;42.60;;;;;;5005333;28;20480;-83
2022/08/22 07:39:40;;;;;;;12.03;9.40;;;37.90;42.60;;;;;;5019468;28;20405;-82
2022/08/22 07:42:06;;;;;;;9.50;8.80;;;38.60;40.80;;;;;;5018907;28;20200;-82
2022/08/22 07:45:05;;;;;;;11.30;10.00;;;38.90;40.40;;;;;;5021648;28;20470;-83
2022/08/22 07:47:55;;;;;;;11.80;10.90;;;40.50;38.30;;;;;;5025648;28;20236;-82
2022/08/22 07:50:29;;;;;;;11.97;11.17;;;42.10;36.50;;;;;;5022243;28;20937;-82
2022/08/22 07:53:06;;;;;;;11.80;10.80;;;42.60;35.10;;;;;;5019264;28;21094;-82
2022/08/22 07:55:34;;;;;;;12.77;11.40;;;43.10;34.40;;;;;;5020286;28;20412;-82
2022/08/22 07:58:03;;;;;;;11.43;10.73;;;42.20;33.70;;;;;;5027369;28;20436;-82
2022/08/22 08:00:31;;;;;;;13.53;12.63;;;40.70;34.90;;;;;;5034490;28;20777;-82
2022/08/22 08:03:06;;;;;;;12.83;11.93;;;39.80;35.20;;;;;;5039481;28;20402;-82
2022/08/22 08:05:35;;;;;;;10.47;9.63;;;38.30;36.70;;;;;;5041260;28;20428;-79
2022/08/22 08:08:11;;;;;;;11.47;10.77;;;37.80;37.00;;;;;;5036481;28;20491;-80
2022/08/22 08:10:38;;;;;;;18.43;12.63;;;37.40;37.90;;;;;;5027907;28;20448;-80
2022/08/22 08:13:13;;;;;;;13.57;12.60;;;37.00;37.90;;;;;;5024029;28;20907;-80
2022/08/22 08:15:41;;;;;;;14.00;12.67;;;37.00;37.90;;;;;;5020041;28;20412;-81
2022/08/22 08:18:18;;;;;;;13.77;12.57;;;36.40;38.50;;;;;;5027269;28;20426;-83
2022/08/22 08:20:48;;;;;;;13.47;12.43;;;36.30;38.90;;;;;;5031449;28;20406;-82
2022/08/22 08:23:18;;;;;;;13.83;12.93;;;36.30;39.20;;;;;;5038751;28;20394;-82
2022/08/22 08:25:53;;;;;;;13.80;12.90;;;36.40;38.70;;;;;;5038754;28;20406;-82
2022/08/22 08:28:36;;;;;;;13.07;11.70;;;35.70;38.80;;;;;;5038564;28;20405;-82
2022/08/22 08:31:20;;;;;;;12.40;11.47;;;35.40;39.00;;;;;;5026838;28;20411;-80
2022/08/22 08:33:50;;;;;;;12.70;11.90;;;35.40;39.60;;;;;;5031345;28;20501;-82
2022/08/22 08:36:25;;;;;;;12.20;11.07;;;35.20;39.40;;;;;;5026783;28;21007;-82
2022/08/22 08:39:01;;;;;;;13.20;12.10;;;35.40;39.50;;;;;;5026140;28;20462;-82
2022/08/22 08:41:45;;;;;;;11.73;10.93;;;35.10;39.60;;;;;;5034570;28;20472;-82
2022/08/22 08:44:29;;;;;;;11.60;10.70;;;34.80;40.30;;;;;;5026205;28;20408;-81
2022/08/22 08:47:17;;;;;;;12.40;11.30;;;35.00;40.60;;;;;;5027606;28;20455;-83
2022/08/22 08:50:13;;;;;;;11.23;10.33;;;35.60;40.20;;;;;;5024512;28;20501;-82
2022/08/22 08:53:00;;;;;;;12.47;11.47;;;35.90;39.80;;;;;;5019955;28;20526;-82
2022/08/22 08:55:44;;;;;;;12.70;11.70;;;35.70;40.40;;;;;;5019981;28;20482;-82
2022/08/22 08:58:38;;;;;;;13.70;12.70;;;35.30;40.80;;;;;;5020362;28;20428;-82
2022/08/22 09:01:20;;;;;;;10.40;9.50;;;35.00;41.70;;;;;;5022922;28;20926;-82
2022/08/22 09:04:05;;;;;;;10.70;9.80;;;36.00;40.60;;;;;;5029732;28;20435;-82
2022/08/22 09:06:53;;;;;;;12.73;11.43;;;35.80;40.50;;;;;;5035911;28;20850;-80
2022/08/22 09:09:24;;;;;;;11.00;10.10;;;35.20;41.20;;;;;;5034253;28;20406;-81
2022/08/22 09:12:22;;;;;;;10.93;10.13;;;35.20;41.40;;;;;;5028567;28;20448;-82
2022/08/22 09:15:07;;;;;;;12.67;11.57;;;35.10;41.20;;;;;;5044139;28;20398;-82
2022/08/22 09:17:38;;;;;;;11.07;10.10;;;34.30;42.20;;;;;;5042709;28;20429;-82
2022/08/22 09:20:38;;;;;;;12.67;11.67;;;33.90;43.10;;;;;;5042308;28;20410;-82
2022/08/22 09:23:29;;;;;;;11.33;10.50;;;34.00;43.20;;;;;;5042689;28;20420;-81
2022/08/22 09:25:58;;;;;;;10.93;10.13;;;34.80;42.30;;;;;;5042834;28;20387;-82
2022/08/22 09:28:37;;;;;;;12.70;11.60;;;34.90;42.70;;;;;;5036705;28;20401;-82
2022/08/22 09:31:21;;;;;;;11.60;10.50;;;35.00;42.40;;;;;;5036283;28;20734;-82
2022/08/22 09:33:54;;;;;;;13.23;12.33;;;35.10;42.60;;;;;;5038834;28;20464;-81
2022/08/22 09:36:42;;;;;;;11.53;10.83;;;35.90;41.80;;;;;;5018800;28;20451;-83
2022/08/22 09:39:30;;;;;;;12.33;11.43;;;35.80;40.90;;;;;;5017765;28;20476;-81
2022/08/22 09:42:06;;;;;;;11.47;10.67;;;35.60;41.10;;;;;;5022989;28;20425;-83
2022/08/22 09:44:42;;;;;;;12.07;11.17;;;35.20;41.10;;;;;;5028737;28;20913;-82
2022/08/22 09:47:31;;;;;;;12.17;11.03;;;34.80;42.10;;;;;;5034354;28;20450;-82
2022/08/22 09:50:04;;;;;;;12.47;11.53;;;34.60;42.30;;;;;;5037957;28;20420;-81
2022/08/22 09:52:35;;;;;;;10.70;10.00;;;34.10;42.40;;;;;;5037991;28;20437;-82
2022/08/22 09:55:15;;;;;;;11.20;10.30;;;33.60;43.40;;;;;;5037332;28;20409;-81
2022/08/22 09:58:00;;;;;;;11.30;9.77;;;33.40;44.00;;;;;;5037111;28;20434;-81
2022/08/22 10:00:34;;;;;;;10.10;9.40;;;33.50;43.90;;;;;;5037942;28;20391;-82
2022/08/22 10:03:14;;;;;;;12.23;10.80;;;33.20;44.00;;;;;;5037673;28;20402;-82
2022/08/22 10:05:55;;;;;;;9.97;9.00;;;33.20;44.40;;;;;;5037855;28;20428;-82
2022/08/22 10:08:35;;;;;;;11.33;10.70;;;33.40;44.30;;;;;;5037348;28;20415;-82
2022/08/22 10:11:22;;;;;;;10.33;9.33;;;32.80;44.00;;;;;;5037027;28;20406;-81
2022/08/22 10:13:56;;;;;;;10.50;9.80;;;32.80;44.70;;;;;;5031890;28;21005;-81
2022/08/22 10:16:40;;;;;;;9.17;8.57;;;32.70;44.90;;;;;;5024221;28;20893;-81
2022/08/22 10:19:26;;;;;;;11.07;10.27;;;32.90;45.20;;;;;;5017291;28;20391;-81
2022/08/22 10:22:18;;;;;;;8.23;7.63;;;32.20;44.70;;;;;;5018224;28;20396;-82
2022/08/22 10:25:21;;;;;;;8.60;7.90;;;32.00;46.30;;;;;;5017391;28;20400;-82
2022/08/22 10:28:13;;;;;;;7.30;6.80;;;31.20;47.20;;;;;;5017063;28;20421;-82
2022/08/22 10:31:06;;;;;;;7.70;7.00;;;30.60;48.60;;;;;;5017667;28;20910;-82
2022/08/22 10:33:37;;;;;;;7.20;6.50;;;30.00;49.60;;;;;;5017935;28;20524;-82
2022/08/22 10:36:08;;;;;;;9.63;5.80;;;29.20;50.00;;;;;;5016725;28;20812;-80
2022/08/22 10:38:40;;;;;;;6.77;5.50;;;29.10;50.30;;;;;;5016474;28;20492;-82
2022/08/22 10:41:28;;;;;;;6.37;5.87;;;29.20;50.90;;;;;;5017812;28;20882;-81
2022/08/22 10:44:03;;;;;;;6.47;5.70;;;29.00;50.80;;;;;;5018453;28;20406;-81
2022/08/22 10:47:07;;;;;;;6.00;5.40;;;29.10;50.80;;;;;;5023406;28;20816;-82
2022/08/22 10:49:50;;;;;;;6.10;5.50;;;29.30;49.90;;;;;;4995405;28;20525;-81
2022/08/22 10:52:26;;;;;;;8.03;5.50;;;29.30;49.90;;;;;;5017106;28;20467;-81
2022/08/22 10:54:59;;;;;;;5.37;4.87;;;29.20;48.20;;;;;;5016038;28;20418;-81
2022/08/22 10:57:52;;;;;;;6.97;6.33;;;29.10;47.40;;;;;;5016785;28;20433;-81
2022/08/22 11:00:43;;;;;;;8.40;5.60;;;31.20;50.20;;;;;;5017017;28;20424;-81
2022/08/22 11:03:25;;;;;;;5.87;5.37;;;29.60;49.30;;;;;;5016286;28;20517;-82
2022/08/22 11:05:56;;;;;;;6.20;5.60;;;29.90;49.00;;;;;;5016447;28;20400;-82
2022/08/22 11:08:24;;;;;;;6.97;6.30;;;29.90;49.60;;;;;;5016041;28;20397;-81
2022/08/22 11:11:19;;;;;;;6.60;5.80;;;29.70;48.80;;;;;;5015879;28;20413;-82
2022/08/22 11:14:12;;;;;;;6.00;5.53;;;29.30;49.20;;;;;;5016245;28;20457;-81
2022/08/22 11:17:15;;;;;;;6.30;5.53;;;29.20;49.30;;;;;;5016398;28;20421;-81
2022/08/22 11:19:43;;;;;;;6.73;5.50;;;29.40;50.10;;;;;;5016317;28;20909;-82
2022/08/22 11:22:32;;;;;;;6.73;6.10;;;29.90;48.70;;;;;;5015818;28;20406;-82
2022/08/22 11:25:32;;;;;;;6.73;6.13;;;30.30;47.70;;;;;;5015937;28;20401;-81
2022/08/22 11:28:05;;;;;;;9.20;8.00;;;30.60;47.10;;;;;;5016088;28;20930;-81
2022/08/22 11:30:56;;;;;;;7.37;6.67;;;30.90;46.40;;;;;;5016687;28;20441;-82
2022/08/22 11:33:42;;;;;;;8.03;7.40;;;31.20;45.30;;;;;;5017059;28;21054;-82
2022/08/22 11:36:28;;;;;;;8.90;7.00;;;31.30;45.00;;;;;;5014796;28;20460;-82
2022/08/22 11:39:18;;;;;;;6.70;6.10;;;31.00;45.00;;;;;;5016005;28;20406;-81
2022/08/22 11:42:10;;;;;;;7.27;6.57;;;30.80;45.80;;;;;;5015583;28;20393;-82
2022/08/22 11:44:57;;;;;;;6.63;6.20;;;31.10;44.30;;;;;;5016729;28;20392;-82
2022/08/22 11:47:28;;;;;;;8.53;7.67;;;31.00;44.40;;;;;;5015866;28;20431;-82
2022/08/22 11:50:21;;;;;;;8.87;8.07;;;31.50;45.40;;;;;;5015865;28;20493;-82
2022/08/22 11:53:06;;;;;;;9.03;8.30;;;31.90;44.60;;;;;;5032127;28;20468;-82
2022/08/22 11:55:47;;;;;;;8.10;7.40;;;31.80;44.30;;;;;;5021019;28;20449;-81
2022/08/22 11:58:24;;;;;;;10.47;9.70;;;31.80;44.90;;;;;;5024630;28;21073;-81
2022/08/22 12:00:55;;;;;;;7.70;7.20;;;31.90;43.60;;;;;;5018137;28;20411;-81
2022/08/22 12:03:21;;;;;;;17.63;9.27;;;31.40;44.10;;;;;;5016108;28;20406;-82
2022/08/22 12:06:05;;;;;;;8.83;8.13;;;30.80;44.80;;;;;;5015545;28;20440;-81
2022/08/22 12:08:39;;;;;;;9.03;8.23;;;30.80;45.50;;;;;;5015977;28;20178;-82
2022/08/22 12:11:26;;;;;;;7.60;7.00;;;30.90;45.70;;;;;;5015596;28;20426;-82
2022/08/22 12:14:03;;;;;;;8.07;7.47;;;31.10;44.80;;;;;;5014431;28;20449;-82
2022/08/22 12:16:54;;;;;;;10.03;8.40;;;31.20;45.20;;;;;;5015328;28;20800;-82
2022/08/22 12:19:35;;;;;;;8.60;7.97;;;31.00;44.50;;;;;;5014517;28;20406;-82
2022/08/22 12:22:30;;;;;;;8.87;8.17;;;31.10;44.80;;;;;;5015843;28;20894;-82
2022/08/22 12:25:00;;;;;;;8.83;8.17;;;31.40;44.20;;;;;;5015187;28;20399;-82
2022/08/22 12:28:10;;;;;;;9.10;8.50;;;31.40;44.60;;;;;;5014801;28;20480;-81
2022/08/22 12:30:50;;;;;;;10.20;9.20;;;31.20;45.10;;;;;;4956889;28;20430;-82
2022/08/22 12:33:22;;;;;;;9.67;8.67;;;31.00;44.80;;;;;;4982658;28;21044;-82
2022/08/22 12:36:11;;;;;;;8.63;7.40;;;30.80;45.50;;;;;;5015608;28;20475;-82
2022/08/22 12:39:23;;;;;;;8.37;7.17;;;30.80;45.80;;;;;;5036620;28;20405;-82
2022/08/22 12:42:20;;;;;;;7.73;7.13;;;30.50;44.90;;;;;;5020453;28;20428;-81
2022/08/22 12:45:13;;;;;;;8.03;7.33;;;30.20;45.70;;;;;;5027604;28;20409;-82
2022/08/22 12:47:50;;;;;;;7.87;7.10;;;30.10;45.90;;;;;;5019037;28;20475;-82
2022/08/22 12:50:24;;;;;;;9.20;8.50;;;30.10;46.40;;;;;;5018839;28;20470;-82
2022/08/22 12:53:34;;;;;;;7.37;6.67;;;30.30;46.50;;;;;;5018576;28;20441;-82
2022/08/22 12:56:28;;;;;;;8.23;7.43;;;29.70;45.30;;;;;;5017386;28;20775;-82
2022/08/22 12:59:11;;;;;;;6.07;5.50;;;29.60;45.90;;;;;;5018927;28;20405;-82
2022/08/22 13:01:43;;;;;;;6.50;5.97;;;29.30;46.70;;;;;;5028899;28;20418;-81
2022/08/22 13:04:15;;;;;;;6.27;5.67;;;29.00;47.20;;;;;;5027918;28;20423;-81
2022/08/22 13:06:41;;;;;;;7.03;6.10;;;28.90;47.70;;;;;;5038465;28;20519;-82
2022/08/22 13:09:25;;;;;;;6.00;5.60;;;29.00;48.20;;;;;;5037871;28;20460;-83
2022/08/22 13:11:53;;;;;;;7.23;5.97;;;29.10;48.10;;;;;;5037533;28;20531;-82
2022/08/22 13:14:23;;;;;;;7.70;6.10;;;29.10;47.40;;;;;;5037826;28;20458;-82
2022/08/22 13:16:53;;;;;;;6.70;6.20;;;29.00;47.50;;;;;;5038048;28;20425;-82
2022/08/22 13:19:22;;;;;;;6.43;5.83;;;29.00;48.00;;;;;;5037395;28;20463;-82
2022/08/22 13:21:58;;;;;;;6.70;6.10;;;29.20;48.20;;;;;;5037198;28;20411;-82
2022/08/22 13:24:41;;;;;;;8.40;6.10;;;29.50;47.60;;;;;;5036540;28;20496;-82
2022/08/22 13:27:14;;;;;;;6.77;6.23;;;29.50;47.90;;;;;;5025018;28;20508;-82
2022/08/22 13:30:07;;;;;;;6.83;6.23;;;29.40;47.80;;;;;;5026671;28;20934;-82
2022/08/22 13:32:44;;;;;;;8.07;6.20;;;29.60;48.10;;;;;;5034200;28;20448;-82
2022/08/22 13:35:19;;;;;;;7.00;6.40;;;29.50;46.90;;;;;;5035773;28;20410;-82
2022/08/22 13:37:48;;;;;;;7.90;6.37;;;29.60;47.00;;;;;;5037841;28;20912;-82
2022/08/22 13:40:29;;;;;;;6.67;6.17;;;29.80;47.30;;;;;;5037624;28;20547;-82
2022/08/22 13:43:09;;;;;;;5.23;4.83;;;29.80;47.30;;;;;;5035425;28;20821;-82
2022/08/22 13:45:36;;;;;;;7.03;5.80;;;29.80;47.50;;;;;;5036964;28;20400;-82
2022/08/22 13:48:08;;;;;;;6.80;6.03;;;29.70;47.90;;;;;;5036834;28;20424;-82
2022/08/22 13:50:57;;;;;;;7.30;6.67;;;29.70;47.90;;;;;;5037594;28;20488;-82
2022/08/22 13:53:33;;;;;;;7.43;5.93;;;29.70;47.40;;;;;;5026169;28;20536;-82
2022/08/22 13:56:16;;;;;;;5.97;5.47;;;30.00;45.70;;;;;;5037628;28;20574;-82